• Join FlightAware (Why Join?)
  • Login
  • US Flag 
09:35PM EDT


 

Airport Tracker/Info


-or-


 

Live Flight TrackerFlight Track Log ✈ FLG4135 ✈ 05-May-2013 ✈ KDTW - KAZO

Flight Track Log - Related Links

Times and Time Zones

All times are in EDT time to prevent confusion due to time zone crossing. See the FLG4135 flight status page for this flight to view local times or setup timezone preferences in your user account.

Time Position Orientation Groundspeed Altitude Reporting Facility
EDT Latitude Longitude Course Direction KTS MPH feet Rate Location/Type
11:26AM 42.2292 -83.3342 270° West 164 189 1,400  Level Cleveland Center
11:27AM 42.2917 -83.3425 354° North 223 257 4,400 2,520 Climbing Cleveland Center
11:28AM 42.3533 -83.3789 336° Northwest 308 354 6,900 2,700 Climbing Cleveland Center
11:29AM 42.2229 -83.7359 276° West  Level FlightAware Approximate
11:29AM 42.3775 -83.4897 286° West 314 361 9,900  Level Cleveland Center
11:30AM 42.2321 -83.8651 276° West  Level FlightAware Approximate
11:30AM 42.3606 -83.5872 257° West 333 383 10,300  Level Cleveland Center
11:31AM 42.2413 -83.9943 276° West  Level FlightAware Approximate
11:31AM 42.3408 -83.7014 257° West 382 440 12,000  Level Cleveland Center
11:32AM 42.2500 -84.1235 270° West  Level FlightAware Approximate
11:32AM 42.3183 -83.8381 257° West 382 440 12,000  Level Cleveland Center
11:33AM 42.2978 -83.9689 258° West 382 440 12,000  Level Cleveland Center
11:34AM 42.2769 -84.1025 258° West 375 432 12,000  Level Cleveland Center
11:35AM 42.2625 -84.2392 262° West 368 423 12,100 -300 Climbing Cleveland Center
11:36AM 42.2600 -84.3767 269° West 368 423 11,400 -540 Descending Cleveland Center
11:37AM 42.2556 -84.5083 267° West 362 417 11,100 -180 Descending Cleveland Center
11:39AM 42.2547 -84.7439 270° West 361 415 11,000 -60 Descending Chicago Center
11:40AM 42.2511 -84.8747 268° West 353 406 11,000 -840 Level Chicago Center
11:41AM 42.2517 -85.0083 270° West 326 375 9,400 -1,620 Descending Chicago Center
11:42AM 42.2775 -85.0944 292° West 300 345 7,800 -1,980 Descending Chicago Center
11:43AM 42.3144 -85.2144 293° West 291 335 5,400 -1,860 Descending Chicago Center
11:44AM 42.3439 -85.3125 292° West 284 327 4,000 -1,020 Descending Chicago Center
11:45AM 42.3672 -85.3914 292° West 242 278 3,400 -780 Descending Chicago Center
11:46AM 42.3769 -85.4661 280° West 215 247 2,500 -540 Descending Chicago Center
11:47AM 42.3725 -85.5406 265° West 204 235 2,400  Descending Chicago Center
11:48AM 42.3308 -85.5714 209° Southwest 187 215 2,600 -300 Climbing Chicago Center
11:49AM 42.2900 -85.5617 170° South 155 178 1,800 -720 Descending Chicago Center
11:50AM 42.2453 -85.5533 172° South 144 166 1,200 -600 Descending Chicago Center